createdAt,value
2023-04-09T00:02:04.102Z,51.63
2023-04-09T00:04:31.537Z,49.37
2023-04-09T00:06:58.457Z,44.00
2023-04-09T00:09:25.456Z,44.57
2023-04-09T00:11:52.441Z,46.23
2023-04-09T00:14:19.334Z,44.53
2023-04-09T00:16:46.268Z,48.93
2023-04-09T00:19:13.573Z,39.57
2023-04-09T00:21:40.469Z,41.97
2023-04-09T00:24:07.550Z,39.00
2023-04-09T00:26:34.487Z,44.80
2023-04-09T00:29:01.601Z,38.13
2023-04-09T00:31:28.625Z,36.73
2023-04-09T00:33:56.157Z,42.93
2023-04-09T00:36:24.633Z,43.57
2023-04-09T00:38:54.196Z,42.57
2023-04-09T00:41:21.369Z,41.43
2023-04-09T00:43:48.244Z,39.50
2023-04-09T00:46:16.303Z,40.90
2023-04-09T00:48:43.445Z,38.53
2023-04-09T00:51:10.385Z,38.23
2023-04-09T00:53:37.435Z,39.10
2023-04-09T00:56:05.042Z,41.23
2023-04-09T00:58:32.112Z,38.17
2023-04-09T01:00:59.192Z,36.30
2023-04-09T01:03:26.379Z,40.10
2023-04-09T01:06:28.608Z,43.77
2023-04-09T01:09:05.752Z,41.40
2023-04-09T01:11:36.621Z,38.93
2023-04-09T01:14:27.306Z,36.67
2023-04-09T01:17:01.728Z,37.33
2023-04-09T01:19:52.710Z,44.27
2023-04-09T01:22:28.435Z,40.03
2023-04-09T01:25:07.403Z,36.30
2023-04-09T01:28:09.691Z,36.97
2023-04-09T01:30:36.984Z,38.53
2023-04-09T01:33:05.626Z,41.20
2023-04-09T01:35:32.842Z,42.73
2023-04-09T01:38:01.770Z,43.07
2023-04-09T01:40:28.711Z,41.33
2023-04-09T01:42:56.780Z,35.60
2023-04-09T01:45:23.976Z,38.90
2023-04-09T01:47:51.084Z,40.33
2023-04-09T01:50:18.302Z,40.00
2023-04-09T01:52:45.304Z,37.60
2023-04-09T01:55:12.356Z,38.27
2023-04-09T01:57:39.262Z,37.00
2023-04-09T02:00:07.897Z,35.57
2023-04-09T02:02:42.931Z,38.03
2023-04-09T02:05:12.103Z,34.17
2023-04-09T02:07:40.933Z,38.23
2023-04-09T02:10:10.105Z,40.20
2023-04-09T02:12:40.606Z,32.60
2023-04-09T02:15:08.457Z,36.00
2023-04-09T02:17:35.775Z,35.77
2023-04-09T02:20:02.822Z,32.50
2023-04-09T02:22:30.140Z,36.30
2023-04-09T02:24:57.101Z,40.27
2023-04-09T02:27:23.941Z,36.27
2023-04-09T02:29:51.095Z,35.37
2023-04-09T02:32:18.028Z,36.97
2023-04-09T02:34:45.925Z,35.93
2023-04-09T02:37:12.827Z,37.60
2023-04-09T02:39:39.722Z,36.87
2023-04-09T02:42:07.969Z,36.83
2023-04-09T02:44:35.056Z,38.97
2023-04-09T02:47:01.975Z,35.20
2023-04-09T02:49:28.953Z,36.63
2023-04-09T02:51:55.840Z,33.97
2023-04-09T02:54:22.708Z,41.17
2023-04-09T02:56:49.596Z,36.53
2023-04-09T02:59:16.827Z,32.00
2023-04-09T03:01:43.857Z,33.20
2023-04-09T03:04:10.820Z,37.50
2023-04-09T03:06:37.766Z,33.57
2023-04-09T03:09:04.717Z,36.90
2023-04-09T03:11:31.574Z,36.03
2023-04-09T03:13:58.417Z,37.23
2023-04-09T03:16:26.574Z,37.33
2023-04-09T03:18:53.869Z,35.20
2023-04-09T03:21:21.179Z,33.70
2023-04-09T03:23:48.176Z,36.90
2023-04-09T03:26:15.008Z,40.23
2023-04-09T03:28:42.239Z,37.60
2023-04-09T03:31:09.144Z,36.67
2023-04-09T03:33:36.330Z,35.47
2023-04-09T03:36:03.398Z,36.97
2023-04-09T03:38:30.488Z,37.07
2023-04-09T03:40:57.328Z,41.37
2023-04-09T03:43:24.188Z,37.07
2023-04-09T03:45:51.153Z,37.73
2023-04-09T03:48:18.033Z,38.43
2023-04-09T03:50:44.984Z,36.77
2023-04-09T03:53:11.924Z,43.33
2023-04-09T03:55:38.833Z,41.70
2023-04-09T03:58:05.923Z,39.87
2023-04-09T04:00:32.866Z,41.17
2023-04-09T04:02:59.949Z,43.63
2023-04-09T04:05:27.108Z,41.97
2023-04-09T04:07:54.218Z,43.37
2023-04-09T04:10:21.472Z,41.23
2023-04-09T04:12:48.413Z,41.77
2023-04-09T04:15:15.623Z,42.37
2023-04-09T04:17:42.627Z,45.27
2023-04-09T04:20:10.029Z,42.37
2023-04-09T04:22:37.010Z,40.67
2023-04-09T04:25:05.465Z,42.80
2023-04-09T04:27:32.350Z,46.90
2023-04-09T04:30:00.332Z,45.60
2023-04-09T04:32:27.493Z,42.40
2023-04-09T04:34:54.794Z,46.47
2023-04-09T04:37:21.923Z,43.53
2023-04-09T04:39:49.012Z,39.93
2023-04-09T04:42:16.915Z,45.07
2023-04-09T04:44:44.602Z,44.73
2023-04-09T04:47:11.785Z,48.90
2023-04-09T04:49:38.737Z,50.80
2023-04-09T04:52:06.590Z,46.23
2023-04-09T04:54:34.556Z,52.23
2023-04-09T04:57:01.691Z,44.17
2023-04-09T04:59:29.927Z,52.87
2023-04-09T05:01:56.866Z,50.27
2023-04-09T05:04:24.002Z,48.07
2023-04-09T05:06:51.168Z,50.37
2023-04-09T05:09:19.813Z,49.23
2023-04-09T05:11:49.127Z,56.33
2023-04-09T05:14:16.181Z,54.87
2023-04-09T05:16:43.211Z,53.53
2023-04-09T05:19:10.135Z,49.30
2023-04-09T05:21:37.044Z,50.40
2023-04-09T05:24:04.506Z,49.33
2023-04-09T05:26:31.378Z,49.03
2023-04-09T05:28:58.382Z,48.13
2023-04-09T05:31:25.596Z,48.10
2023-04-09T05:33:53.012Z,50.20
2023-04-09T05:36:19.985Z,49.80
2023-04-09T05:38:47.556Z,47.33
2023-04-09T05:41:15.420Z,49.47
2023-04-09T05:43:42.989Z,46.90
2023-04-09T05:46:11.225Z,48.40
2023-04-09T05:48:38.174Z,52.33
2023-04-09T05:51:05.195Z,50.07
2023-04-09T05:53:32.497Z,48.33
2023-04-09T05:55:59.442Z,67.60
2023-04-09T05:58:28.261Z,55.87
2023-04-09T06:00:55.165Z,52.67
2023-04-09T06:03:22.298Z,48.90
2023-04-09T06:05:49.453Z,52.57
2023-04-09T06:08:17.582Z,49.53
2023-04-09T06:10:44.507Z,52.43
2023-04-09T06:13:11.553Z,56.07
2023-04-09T06:15:39.421Z,52.07
2023-04-09T06:18:06.551Z,49.40
2023-04-09T06:20:33.740Z,52.23
2023-04-09T06:23:00.917Z,55.33
2023-04-09T06:25:27.833Z,58.07
2023-04-09T06:27:54.763Z,53.57
2023-04-09T06:30:21.966Z,52.57
2023-04-09T06:32:54.566Z,57.23
2023-04-09T06:35:22.614Z,55.67
2023-04-09T06:37:49.497Z,53.03
2023-04-09T06:40:16.498Z,58.53
2023-04-09T06:42:43.560Z,52.23
2023-04-09T06:45:10.719Z,54.83
2023-04-09T06:47:37.742Z,52.97
2023-04-09T06:50:05.223Z,53.77
2023-04-09T06:52:32.145Z,58.03
2023-04-09T06:54:59.049Z,50.43
2023-04-09T06:57:26.423Z,56.57
2023-04-09T06:59:53.355Z,52.33
2023-04-09T07:02:20.607Z,49.87
2023-04-09T07:04:48.223Z,53.50
2023-04-09T07:07:15.476Z,56.40
2023-04-09T07:09:42.948Z,54.90
2023-04-09T07:12:09.893Z,58.90
2023-04-09T07:14:36.771Z,56.47
2023-04-09T07:17:03.673Z,56.47
2023-04-09T07:19:31.118Z,60.50
2023-04-09T07:21:57.970Z,57.43
2023-04-09T07:24:26.017Z,51.13
2023-04-09T07:26:53.489Z,54.90
2023-04-09T07:29:22.438Z,51.57
2023-04-09T07:31:49.443Z,52.77
2023-04-09T07:34:17.034Z,50.40
2023-04-09T07:36:44.043Z,56.50
2023-04-09T07:39:10.997Z,56.23
2023-04-09T07:41:37.953Z,59.77
2023-04-09T07:44:06.474Z,56.97
2023-04-09T07:46:33.605Z,59.03
2023-04-09T07:49:00.559Z,57.80
2023-04-09T07:51:27.837Z,60.00
2023-04-09T07:53:54.741Z,58.97
2023-04-09T07:56:21.689Z,56.93
2023-04-09T07:58:49.435Z,53.40
2023-04-09T08:01:16.676Z,58.80
2023-04-09T08:03:43.850Z,52.63
2023-04-09T08:06:10.880Z,54.47
2023-04-09T08:08:37.817Z,49.57
2023-04-09T08:11:05.020Z,51.93
2023-04-09T08:13:31.873Z,52.40
2023-04-09T08:16:02.194Z,51.60
2023-04-09T08:18:29.732Z,46.40
2023-04-09T08:20:57.315Z,42.87
2023-04-09T08:23:24.215Z,46.03
2023-04-09T08:25:51.142Z,43.23
2023-04-09T08:28:19.102Z,39.87
2023-04-09T08:30:47.768Z,45.47
2023-04-09T08:33:14.972Z,40.67
2023-04-09T08:35:42.585Z,46.27
2023-04-09T08:38:09.714Z,38.63
2023-04-09T08:40:37.382Z,40.77
2023-04-09T08:43:09.063Z,40.93
2023-04-09T08:45:36.768Z,40.57
2023-04-09T08:48:05.057Z,44.10
2023-04-09T08:50:34.203Z,39.50
2023-04-09T08:53:04.753Z,38.03
2023-04-09T08:55:34.589Z,36.57
2023-04-09T08:58:05.872Z,39.30
2023-04-09T09:00:32.921Z,38.33
2023-04-09T09:03:07.182Z,36.07
2023-04-09T09:05:45.409Z,38.80
2023-04-09T09:08:26.292Z,42.00
2023-04-09T09:10:53.191Z,40.57
2023-04-09T09:13:23.855Z,35.57
2023-04-09T09:16:11.767Z,40.50
2023-04-09T09:18:43.475Z,34.87
2023-04-09T09:21:15.197Z,38.10
2023-04-09T09:23:42.815Z,35.43
2023-04-09T09:26:20.834Z,35.73
2023-04-09T09:28:49.528Z,36.33
2023-04-09T09:31:18.127Z,38.87
2023-04-09T09:33:45.472Z,36.83
2023-04-09T09:36:12.592Z,35.87
2023-04-09T09:38:57.362Z,37.83
2023-04-09T09:41:25.026Z,37.77
2023-04-09T09:43:52.155Z,37.33
2023-04-09T09:46:21.330Z,37.47
2023-04-09T09:48:49.867Z,36.33
2023-04-09T09:51:17.579Z,35.23
2023-04-09T09:53:48.333Z,36.80
2023-04-09T09:56:21.697Z,40.53
2023-04-09T09:59:00.630Z,37.63
2023-04-09T10:01:28.435Z,36.77
2023-04-09T10:03:59.816Z,36.70
2023-04-09T10:06:27.772Z,36.97
2023-04-09T10:08:58.477Z,37.10
2023-04-09T10:11:25.662Z,38.00
2023-04-09T10:14:01.370Z,36.47
2023-04-09T10:16:28.565Z,39.13
2023-04-09T10:18:56.617Z,35.50
2023-04-09T10:21:31.625Z,32.83
2023-04-09T10:24:00.018Z,32.90
2023-04-09T10:26:27.950Z,33.33
2023-04-09T10:29:08.714Z,32.53
2023-04-09T10:32:03.186Z,33.70
2023-04-09T10:34:30.264Z,30.33
2023-04-09T10:36:58.519Z,32.90
2023-04-09T10:39:30.959Z,39.10
2023-04-09T10:41:59.952Z,35.17
2023-04-09T10:44:31.912Z,36.30
2023-04-09T10:46:59.639Z,34.23
2023-04-09T10:49:27.355Z,34.47
2023-04-09T10:52:11.791Z,32.17
2023-04-09T10:54:46.472Z,32.03
2023-04-09T10:57:14.370Z,36.80
2023-04-09T10:59:44.965Z,36.53
2023-04-09T11:02:39.866Z,34.73
2023-04-09T11:05:28.931Z,36.87
2023-04-09T11:08:03.583Z,41.93
2023-04-09T11:10:31.080Z,35.70
2023-04-09T11:12:58.223Z,35.40
2023-04-09T11:15:25.146Z,39.20
2023-04-09T11:17:52.303Z,40.27
2023-04-09T11:20:24.100Z,35.80
2023-04-09T11:22:53.461Z,38.37
2023-04-09T11:25:22.437Z,38.87
2023-04-09T11:27:49.699Z,41.23
2023-04-09T11:30:17.033Z,37.13
2023-04-09T11:32:43.958Z,39.13
2023-04-09T11:35:15.743Z,39.53
2023-04-09T11:37:44.394Z,36.50
2023-04-09T11:40:25.769Z,38.37
2023-04-09T11:42:54.930Z,38.80
2023-04-09T11:45:28.011Z,33.87
2023-04-09T11:47:56.603Z,40.30
2023-04-09T11:50:23.755Z,38.50
2023-04-09T11:52:50.955Z,36.03
2023-04-09T11:55:29.398Z,41.10
2023-04-09T11:58:03.552Z,36.93
2023-04-09T12:00:32.410Z,39.87
2023-04-09T12:03:02.866Z,40.37
2023-04-09T12:05:32.121Z,37.43
2023-04-09T12:08:09.107Z,35.37
2023-04-09T12:10:38.028Z,40.23
2023-04-09T12:13:12.341Z,43.30
2023-04-09T12:15:43.446Z,36.13
2023-04-09T12:18:14.025Z,44.70
2023-04-09T12:20:46.677Z,44.43
2023-04-09T12:23:14.446Z,46.67
2023-04-09T12:25:44.356Z,42.13
2023-04-09T12:28:16.756Z,41.63
2023-04-09T12:30:44.387Z,44.47
2023-04-09T12:33:11.579Z,48.63
2023-04-09T12:35:39.032Z,42.97
2023-04-09T12:38:06.308Z,48.20
2023-04-09T12:40:33.742Z,48.87
2023-04-09T12:43:01.515Z,44.47
2023-04-09T12:45:29.531Z,42.00
2023-04-09T12:47:57.032Z,49.07
2023-04-09T12:50:24.366Z,48.93
2023-04-09T12:52:51.292Z,47.37
2023-04-09T12:55:18.251Z,47.97
2023-04-09T12:57:47.344Z,42.03
2023-04-09T13:00:14.909Z,44.83
2023-04-09T13:02:43.138Z,50.70
2023-04-09T13:05:12.216Z,46.67
2023-04-09T13:07:42.729Z,45.87
2023-04-09T13:10:10.489Z,45.57
2023-04-09T13:12:37.496Z,43.93
2023-04-09T13:15:04.723Z,50.00
2023-04-09T13:17:31.749Z,50.23
2023-04-09T13:19:58.656Z,43.60
2023-04-09T13:22:25.644Z,48.23
2023-04-09T13:24:52.785Z,44.77
2023-04-09T13:27:19.694Z,41.43
2023-04-09T13:29:47.561Z,47.90
2023-04-09T13:32:14.558Z,51.10
2023-04-09T13:34:41.785Z,47.63
2023-04-09T13:37:08.675Z,45.53
2023-04-09T13:39:35.756Z,45.47
2023-04-09T13:42:13.655Z,50.87
2023-04-09T13:44:44.722Z,49.27
2023-04-09T13:47:13.241Z,48.50
2023-04-09T13:49:41.358Z,50.13
2023-04-09T13:52:08.902Z,45.23
2023-04-09T13:54:36.186Z,49.30
2023-04-09T13:57:04.002Z,44.07
2023-04-09T13:59:31.128Z,49.60
2023-04-09T14:01:58.153Z,44.57
2023-04-09T14:04:25.323Z,43.23
2023-04-09T14:06:52.288Z,43.20
2023-04-09T14:09:19.217Z,45.83
2023-04-09T14:11:46.324Z,47.70
2023-04-09T14:14:13.276Z,44.80
2023-04-09T14:16:40.674Z,41.73
2023-04-09T14:19:07.918Z,43.97
2023-04-09T14:21:34.882Z,36.10
2023-04-09T14:24:01.969Z,38.73
2023-04-09T14:26:29.283Z,39.03
2023-04-09T14:28:56.506Z,36.77
2023-04-09T14:31:23.586Z,38.30
2023-04-09T14:33:50.741Z,37.57
2023-04-09T14:36:18.007Z,35.77
2023-04-09T14:38:44.922Z,34.17
2023-04-09T14:41:11.871Z,38.43
2023-04-09T14:43:39.755Z,42.60
2023-04-09T14:46:11.677Z,36.87
2023-04-09T14:48:40.105Z,40.03
2023-04-09T14:51:09.078Z,38.83
2023-04-09T14:53:36.421Z,33.50
2023-04-09T14:56:03.397Z,36.53
2023-04-09T14:58:30.348Z,37.33
2023-04-09T15:00:57.705Z,39.70
2023-04-09T15:03:24.832Z,39.87
2023-04-09T15:05:52.202Z,42.93
2023-04-09T15:08:19.195Z,44.77
2023-04-09T15:10:46.051Z,36.37
2023-04-09T15:13:12.981Z,35.13
2023-04-09T15:15:44.976Z,34.77
2023-04-09T15:18:11.843Z,36.03
2023-04-09T15:20:39.438Z,37.13
2023-04-09T15:23:06.373Z,38.00
2023-04-09T15:25:33.287Z,40.33
2023-04-09T15:28:02.577Z,41.80
2023-04-09T15:30:29.723Z,43.10
2023-04-09T15:32:56.701Z,40.17
2023-04-09T15:35:29.394Z,34.50
2023-04-09T15:37:57.177Z,36.20
2023-04-09T15:40:24.121Z,37.50
2023-04-09T15:42:51.226Z,39.33
2023-04-09T15:45:19.139Z,41.53
2023-04-09T15:47:46.511Z,41.73
2023-04-09T15:50:14.443Z,46.17
2023-04-09T15:52:41.479Z,45.63
2023-04-09T15:55:09.148Z,45.50
2023-04-09T15:57:36.658Z,46.40
2023-04-09T16:00:03.961Z,47.57
2023-04-09T16:02:30.939Z,51.80
2023-04-09T16:04:57.886Z,43.57
2023-04-09T16:07:24.830Z,49.70
2023-04-09T16:09:51.856Z,52.47
2023-04-09T16:12:18.746Z,47.47
2023-04-09T16:14:45.803Z,52.37
2023-04-09T16:17:12.673Z,49.30
2023-04-09T16:19:39.586Z,49.50
2023-04-09T16:22:06.815Z,52.60
2023-04-09T16:24:33.745Z,55.73
2023-04-09T16:27:01.556Z,52.10
2023-04-09T16:29:28.925Z,60.63
2023-04-09T16:31:57.659Z,52.13
2023-04-09T16:34:25.052Z,58.23
2023-04-09T16:36:51.962Z,49.17
2023-04-09T16:39:19.312Z,50.17
2023-04-09T16:41:46.240Z,59.97
2023-04-09T16:44:13.148Z,55.60
2023-04-09T16:46:40.034Z,52.17
2023-04-09T16:49:06.928Z,52.77
2023-04-09T16:51:34.795Z,52.57
2023-04-09T16:54:02.114Z,53.70
2023-04-09T16:56:29.009Z,51.40
2023-04-09T16:58:55.948Z,55.80
2023-04-09T17:01:22.870Z,60.37
2023-04-09T17:03:50.157Z,59.23
2023-04-09T17:06:17.257Z,56.03
2023-04-09T17:08:45.134Z,53.40
2023-04-09T17:11:16.381Z,62.00
2023-04-09T17:13:43.398Z,57.10
2023-04-09T17:16:11.948Z,52.60
2023-04-09T17:18:39.248Z,59.87
2023-04-09T17:21:06.813Z,55.10
2023-04-09T17:23:33.751Z,58.07
2023-04-09T17:26:01.803Z,59.77
2023-04-09T17:28:28.700Z,57.40
2023-04-09T17:30:55.684Z,57.80
2023-04-09T17:33:23.677Z,54.10
2023-04-09T17:35:50.926Z,50.50
2023-04-09T17:38:21.369Z,52.77
2023-04-09T17:40:48.759Z,55.97
2023-04-09T17:43:15.759Z,49.77
2023-04-09T17:45:42.657Z,50.77
2023-04-09T17:48:09.671Z,48.20
2023-04-09T17:50:39.707Z,44.97
2023-04-09T17:53:07.655Z,51.77
2023-04-09T17:55:34.683Z,48.97
2023-04-09T17:58:01.700Z,47.33
2023-04-09T18:00:28.650Z,36.97
2023-04-09T18:02:57.517Z,40.13
2023-04-09T18:05:24.850Z,30.03
2023-04-09T18:07:53.274Z,29.63
2023-04-09T18:10:21.461Z,31.30
2023-04-09T18:12:48.328Z,34.90
2023-04-09T18:15:16.694Z,44.87
2023-04-09T18:17:43.650Z,40.00
2023-04-09T18:20:12.785Z,38.50
2023-04-09T18:22:39.683Z,24.53
2023-04-09T18:25:07.647Z,33.10
2023-04-09T18:27:35.088Z,43.47
2023-04-09T18:30:02.186Z,33.50
2023-04-09T18:32:29.769Z,38.27
2023-04-09T18:34:57.083Z,50.47
2023-04-09T18:37:24.572Z,40.90
2023-04-09T18:39:51.510Z,34.03
2023-04-09T18:42:18.389Z,27.73
2023-04-09T18:44:45.793Z,26.40
2023-04-09T18:47:12.732Z,34.10
2023-04-09T18:49:39.602Z,41.80
2023-04-09T18:52:07.800Z,30.80
2023-04-09T18:54:36.563Z,27.53
2023-04-09T18:57:06.876Z,24.60
2023-04-09T18:59:35.299Z,23.63
2023-04-09T19:02:05.485Z,20.70
2023-04-09T19:04:39.771Z,19.53
2023-04-09T19:07:07.046Z,21.57
2023-04-09T19:09:34.564Z,19.53
2023-04-09T19:12:02.074Z,22.93
2023-04-09T19:14:29.196Z,21.13
2023-04-09T19:16:57.145Z,20.77
2023-04-09T19:19:24.133Z,32.20
2023-04-09T19:21:51.366Z,37.33
2023-04-09T19:24:18.266Z,43.67
2023-04-09T19:26:45.222Z,24.60
2023-04-09T19:29:12.206Z,35.53
2023-04-09T19:31:39.154Z,23.50
2023-04-09T19:34:06.524Z,22.93
2023-04-09T19:36:34.124Z,21.87
2023-04-09T19:39:01.305Z,20.73
2023-04-09T19:41:28.282Z,21.60
2023-04-09T19:43:55.350Z,21.13
2023-04-09T19:46:22.262Z,22.20
2023-04-09T19:48:49.506Z,20.47
2023-04-09T19:51:18.602Z,20.57
2023-04-09T19:53:47.440Z,21.53
2023-04-09T19:56:14.444Z,25.90
2023-04-09T19:58:43.253Z,22.53
2023-04-09T20:01:10.206Z,22.30
2023-04-09T20:03:37.274Z,22.83
2023-04-09T20:06:09.489Z,21.70
2023-04-09T20:08:37.856Z,23.87
2023-04-09T20:11:05.472Z,21.80
2023-04-09T20:13:33.321Z,22.93
2023-04-09T20:16:00.736Z,22.00
2023-04-09T20:18:28.753Z,22.43
2023-04-09T20:20:55.792Z,21.50
2023-04-09T20:23:22.758Z,22.53
2023-04-09T20:25:54.796Z,21.47
2023-04-09T20:28:22.201Z,22.00
2023-04-09T20:30:49.429Z,21.03
2023-04-09T20:33:18.085Z,23.57
2023-04-09T20:35:45.142Z,23.73
2023-04-09T20:38:12.036Z,23.87
2023-04-09T20:40:38.920Z,23.00
2023-04-09T20:43:05.905Z,23.23
2023-04-09T20:45:32.799Z,24.47
2023-04-09T20:47:59.805Z,23.37
2023-04-09T20:50:26.769Z,25.13
2023-04-09T20:52:53.642Z,23.07
2023-04-09T20:55:20.614Z,24.97
2023-04-09T20:57:47.523Z,24.87
2023-04-09T21:00:14.793Z,24.83
2023-04-09T21:02:42.835Z,23.50
2023-04-09T21:05:22.014Z,25.70
2023-04-09T21:07:50.756Z,24.33
2023-04-09T21:10:17.901Z,23.93
2023-04-09T21:12:44.863Z,24.87
2023-04-09T21:15:11.872Z,25.57
2023-04-09T21:17:38.854Z,23.63
2023-04-09T21:20:06.313Z,23.47
2023-04-09T21:22:34.620Z,25.77
2023-04-09T21:25:03.305Z,22.33
2023-04-09T21:27:30.371Z,23.23
2023-04-09T21:29:58.264Z,22.37
2023-04-09T21:32:25.393Z,25.20
2023-04-09T21:34:52.470Z,24.20
2023-04-09T21:37:19.340Z,25.57
2023-04-09T21:39:48.336Z,24.97
2023-04-09T21:42:15.290Z,27.03
2023-04-09T21:44:42.183Z,25.47
2023-04-09T21:47:09.445Z,23.73
2023-04-09T21:49:39.284Z,22.87
2023-04-09T21:52:14.131Z,24.30
2023-04-09T21:54:42.482Z,24.57
2023-04-09T21:57:10.416Z,26.30
2023-04-09T21:59:37.506Z,25.17
2023-04-09T22:02:07.968Z,26.13
2023-04-09T22:04:35.302Z,25.03
2023-04-09T22:07:03.441Z,24.03
2023-04-09T22:09:31.536Z,24.60
2023-04-09T22:11:58.875Z,26.90
2023-04-09T22:14:29.734Z,24.93
2023-04-09T22:16:58.147Z,23.30
2023-04-09T22:19:26.243Z,23.90
2023-04-09T22:21:53.616Z,24.53
2023-04-09T22:24:26.696Z,24.70
2023-04-09T22:26:54.150Z,22.83
2023-04-09T22:29:21.156Z,24.17
2023-04-09T22:31:48.037Z,24.63
2023-04-09T22:34:21.252Z,24.30
2023-04-09T22:36:49.154Z,26.50
2023-04-09T22:39:16.187Z,27.40
2023-04-09T22:41:43.149Z,24.67
2023-04-09T22:44:10.057Z,28.00
2023-04-09T22:46:37.314Z,25.63
2023-04-09T22:49:05.861Z,26.53
2023-04-09T22:51:35.090Z,24.63
2023-04-09T22:54:02.349Z,24.43
2023-04-09T22:56:31.624Z,24.37
2023-04-09T22:58:58.903Z,25.87
2023-04-09T23:01:26.429Z,25.63
2023-04-09T23:03:53.481Z,25.43
2023-04-09T23:06:20.845Z,22.10
2023-04-09T23:08:47.818Z,22.63
2023-04-09T23:11:14.674Z,24.57
2023-04-09T23:13:41.578Z,23.40
2023-04-09T23:16:09.264Z,24.43
2023-04-09T23:18:36.575Z,23.00
2023-04-09T23:21:13.678Z,22.20
2023-04-09T23:23:40.756Z,26.07
2023-04-09T23:26:07.709Z,21.07
2023-04-09T23:28:34.611Z,22.83
2023-04-09T23:31:01.667Z,21.93
2023-04-09T23:33:28.574Z,21.30
2023-04-09T23:35:55.626Z,20.70
2023-04-09T23:38:22.655Z,21.53
2023-04-09T23:40:49.946Z,21.20
2023-04-09T23:43:17.022Z,22.60
2023-04-09T23:45:44.521Z,23.50
2023-04-09T23:48:12.587Z,21.90
2023-04-09T23:50:41.254Z,21.67
2023-04-09T23:53:08.689Z,21.47
2023-04-09T23:55:40.850Z,23.20
2023-04-09T23:58:08.533Z,21.10
